Time;durP1;ratioP1;P1;durP2;ratioP2;P2;SDS_P1;SDS_P2;PMS_P1;PMS_P2;Temp;Humidity;BMP_temperature;BMP_pressure;BME280_temperature;BME280_humidity;BME280_pressure;Samples;Min_cycle;Max_cycle;Signal;HPM_P1;HPM_P2
2022/07/19 00:00:11;;;;;;;19.85;7.65;;;16.80;99.90;;;;;;5050536;28;19909;-89
2022/07/19 00:02:38;;;;;;;17.65;8.32;;;16.90;99.90;;;;;;5050626;28;20032;-90
2022/07/19 00:05:05;;;;;;;21.38;8.38;;;16.90;99.90;;;;;;5033206;28;20036;-90
2022/07/19 00:07:31;;;;;;;21.98;6.50;;;16.90;99.90;;;;;;5050873;28;20502;-88
2022/07/19 00:09:57;;;;;;;27.50;7.88;;;16.80;99.90;;;;;;5032379;28;20021;-90
2022/07/19 00:12:23;;;;;;;23.58;8.13;;;16.70;99.90;;;;;;5032696;28;20020;-88
2022/07/19 00:14:48;;;;;;;19.17;7.03;;;16.60;99.90;;;;;;5050569;28;20055;-91
2022/07/19 00:17:14;;;;;;;18.77;7.28;;;16.80;99.90;;;;;;5032771;28;20040;-88
2022/07/19 00:19:40;;;;;;;13.40;6.80;;;16.70;99.90;;;;;;5033282;28;20021;-87
2022/07/19 00:22:06;;;;;;;22.88;6.55;;;16.50;99.90;;;;;;5050498;28;20025;-92
2022/07/19 00:24:32;;;;;;;14.98;6.50;;;16.60;99.90;;;;;;5032822;28;20487;-89
2022/07/19 00:26:58;;;;;;;16.58;6.95;;;16.70;99.90;;;;;;5054478;28;20020;-91
2022/07/19 00:29:24;;;;;;;18.35;6.82;;;16.70;99.90;;;;;;5035295;28;20029;-87
2022/07/19 00:31:49;;;;;;;18.67;7.03;;;16.70;99.90;;;;;;5033897;28;20122;-87
2022/07/19 00:34:15;;;;;;;27.10;7.65;;;16.80;99.90;;;;;;5032703;28;20028;-91
2022/07/19 00:36:41;;;;;;;15.20;6.85;;;16.80;99.90;;;;;;5032648;28;20040;-91
2022/07/19 00:39:07;;;;;;;16.13;6.78;;;16.90;99.90;;;;;;5037245;28;20032;-87
2022/07/19 00:41:42;;;;;;;19.95;7.93;;;16.80;99.90;;;;;;5047315;28;20029;-88
2022/07/19 00:44:09;;;;;;;12.25;6.18;;;16.70;99.90;;;;;;5042668;28;20029;-91
2022/07/19 00:46:36;;;;;;;15.07;7.18;;;16.60;99.90;;;;;;5037048;28;20028;-88
2022/07/19 00:49:02;;;;;;;14.40;7.00;;;16.40;99.90;;;;;;5036905;28;20049;-90
2022/07/19 00:51:28;;;;;;;18.35;7.10;;;16.40;99.90;;;;;;5036257;28;20036;-87
2022/07/19 00:53:56;;;;;;;17.83;6.53;;;16.40;99.90;;;;;;5055352;28;20025;-90
2022/07/19 00:56:25;;;;;;;15.85;6.60;;;16.50;99.90;;;;;;5040567;28;20044;-89
2022/07/19 00:58:51;;;;;;;14.65;6.43;;;16.50;99.90;;;;;;5058908;28;20096;-86
2022/07/19 01:01:18;;;;;;;15.13;7.28;;;16.60;99.90;;;;;;5040785;28;20029;-89
2022/07/19 01:03:45;;;;;;;19.83;7.87;;;16.40;99.90;;;;;;5039099;28;20679;-89
2022/07/19 01:06:10;;;;;;;17.48;8.23;;;16.30;99.90;;;;;;5037911;28;20279;-89
2022/07/19 01:08:37;;;;;;;17.50;8.77;;;16.30;99.90;;;;;;5036159;28;20544;-91
2022/07/19 01:11:05;;;;;;;22.02;8.02;;;16.30;99.90;;;;;;5035480;28;20446;-89
2022/07/19 01:13:32;;;;;;;18.83;8.50;;;16.30;99.90;;;;;;5058588;22;21058;-57
2022/07/19 01:15:57;;;;;;;22.42;7.28;;;16.20;99.90;;;;;;5053200;28;20100;-58
2022/07/19 01:18:23;;;;;;;22.05;8.23;;;16.10;99.90;;;;;;5053878;28;20071;-58
2022/07/19 01:20:50;;;;;;;23.95;8.23;;;16.10;99.90;;;;;;5053692;28;20036;-59
2022/07/19 01:23:16;;;;;;;;;;;16.20;99.90;;;;;;5054102;28;20086;-55
2022/07/19 01:25:42;;;;;;;16.40;7.80;;;16.30;99.90;;;;;;5054019;28;19916;-56
2022/07/19 01:28:08;;;;;;;21.15;9.10;;;16.30;99.90;;;;;;5053938;28;20028;-56
2022/07/19 01:30:34;;;;;;;15.55;8.20;;;16.20;99.90;;;;;;5053511;28;20029;-56
2022/07/19 01:33:01;;;;;;;18.63;8.30;;;16.20;99.90;;;;;;5053596;28;20412;-56
2022/07/19 01:35:28;;;;;;;13.23;7.23;;;16.20;99.90;;;;;;5053552;28;20032;-56
2022/07/19 01:37:54;;;;;;;19.55;8.20;;;16.20;99.90;;;;;;5035765;28;20087;-56
2022/07/19 01:40:20;;;;;;;18.93;7.30;;;16.20;99.90;;;;;;5053356;28;20041;-56
2022/07/19 01:42:48;;;;;;;16.85;7.68;;;16.20;99.90;;;;;;5053578;28;20032;-57
2022/07/19 01:45:14;;;;;;;18.90;8.13;;;16.30;99.90;;;;;;5051890;28;20460;-57
2022/07/19 01:47:43;;;;;;;17.75;8.00;;;16.20;99.90;;;;;;5053294;28;20097;-57
2022/07/19 01:50:12;;;;;;;12.88;7.53;;;16.20;99.90;;;;;;5053146;28;20040;-57
2022/07/19 01:52:38;;;;;;;17.40;7.70;;;16.10;99.90;;;;;;5053414;28;20025;-58
2022/07/19 01:55:04;;;;;;;17.58;7.95;;;16.20;99.90;;;;;;5053074;28;20497;-57
2022/07/19 01:57:30;;;;;;;18.80;9.45;;;16.20;99.90;;;;;;5053012;28;20178;-57
2022/07/19 01:59:56;;;;;;;20.08;8.02;;;16.00;99.90;;;;;;5052982;28;20108;-57
2022/07/19 02:02:21;;;;;;;15.63;8.02;;;16.10;99.90;;;;;;5052888;28;20028;-57
2022/07/19 02:04:47;;;;;;;16.27;7.68;;;16.10;99.90;;;;;;5052960;28;20035;-57
2022/07/19 02:07:13;;;;;;;14.45;7.60;;;16.10;99.90;;;;;;5053015;28;20052;-57
2022/07/19 02:09:39;;;;;;;24.20;7.13;;;16.10;99.90;;;;;;5053089;28;20049;-57
2022/07/19 02:12:04;;;;;;;18.23;8.13;;;16.00;99.90;;;;;;5052935;28;20482;-57
2022/07/19 02:14:30;;;;;;;23.63;8.30;;;15.80;99.90;;;;;;5052597;28;20539;-57
2022/07/19 02:16:56;;;;;;;18.52;7.70;;;15.70;99.90;;;;;;5052616;28;20068;-57
2022/07/19 02:19:22;;;;;;;20.75;7.63;;;15.70;99.90;;;;;;5051306;28;20025;-57
2022/07/19 02:21:48;;;;;;;20.67;7.53;;;15.70;99.90;;;;;;5052530;28;20025;-57
2022/07/19 02:24:14;;;;;;;22.52;7.10;;;15.80;99.90;;;;;;5052667;28;20101;-61
2022/07/19 02:26:40;;;;;;;21.73;7.00;;;15.80;99.90;;;;;;5052549;28;20384;-56
2022/07/19 02:29:06;;;;;;;19.63;7.57;;;15.70;99.90;;;;;;5052610;28;20033;-56
2022/07/19 02:31:32;;;;;;;17.85;8.00;;;15.50;99.90;;;;;;5052310;28;20028;-56
2022/07/19 02:33:58;;;;;;;18.67;9.70;;;15.60;99.90;;;;;;5052365;28;20043;-56
2022/07/19 02:36:23;;;;;;;26.67;9.30;;;15.50;99.90;;;;;;5052312;28;20029;-56
2022/07/19 02:38:49;;;;;;;20.77;9.40;;;15.50;99.90;;;;;;5052369;28;20029;-57
2022/07/19 02:41:15;;;;;;;20.02;8.45;;;15.40;99.90;;;;;;5052342;28;20029;-56
2022/07/19 02:43:40;;;;;;;24.98;8.35;;;15.50;99.90;;;;;;5052328;28;20377;-57
2022/07/19 02:46:06;;;;;;;16.35;8.77;;;15.40;99.90;;;;;;5052098;28;20057;-56
2022/07/19 02:48:32;;;;;;;14.77;7.85;;;15.40;99.90;;;;;;5052124;28;20175;-56
2022/07/19 02:50:58;;;;;;;16.88;8.50;;;15.50;99.90;;;;;;5052106;28;20457;-56
2022/07/19 02:53:23;;;;;;;19.90;8.25;;;15.60;99.90;;;;;;5052258;28;20047;-58
2022/07/19 02:55:49;;;;;;;17.83;7.90;;;15.60;99.90;;;;;;5052024;28;20025;-56
2022/07/19 02:58:15;;;;;;;16.42;7.93;;;15.60;99.90;;;;;;5051886;28;20094;-56
2022/07/19 03:00:41;;;;;;;17.73;8.35;;;15.60;99.90;;;;;;5051788;28;20021;-57
2022/07/19 03:05:51;;;;;;;16.08;7.72;;;15.60;99.90;;;;;;5051665;28;20074;-56
2022/07/19 03:08:17;;;;;;;14.23;7.85;;;15.70;99.90;;;;;;5050397;28;20025;-56
2022/07/19 03:10:43;;;;;;;14.70;6.72;;;15.80;99.90;;;;;;5051815;28;20075;-56
2022/07/19 03:13:09;;;;;;;14.52;7.32;;;15.70;99.90;;;;;;5051725;28;20025;-56
2022/07/19 03:15:36;;;;;;;21.23;7.00;;;15.70;99.90;;;;;;5051419;28;20041;-58
2022/07/19 03:18:02;;;;;;;16.63;6.97;;;15.70;99.90;;;;;;5051422;28;20068;-58
2022/07/19 03:20:28;;;;;;;15.57;7.93;;;15.70;99.90;;;;;;5051564;28;20031;-56
2022/07/19 03:22:54;;;;;;;17.77;7.97;;;15.70;99.90;;;;;;5051540;28;20033;-56
2022/07/19 03:25:19;;;;;;;18.60;8.80;;;15.60;99.90;;;;;;5051490;28;20051;-56
2022/07/19 03:27:45;;;;;;;27.38;9.15;;;15.50;99.90;;;;;;5051628;28;20550;-56
2022/07/19 03:30:11;;;;;;;13.82;8.85;;;15.50;99.90;;;;;;5049808;28;20115;-56
2022/07/19 03:32:36;;;;;;;20.65;8.93;;;15.50;99.90;;;;;;5051211;28;20025;-56
2022/07/19 03:35:03;;;;;;;23.05;10.80;;;15.50;99.90;;;;;;5051489;28;20025;-56
2022/07/19 03:37:29;;;;;;;17.40;9.87;;;15.50;99.90;;;;;;5051089;28;20047;-56
2022/07/19 03:39:54;;;;;;;18.20;9.20;;;15.40;99.90;;;;;;5051178;28;20029;-56
2022/07/19 03:42:20;;;;;;;18.25;8.85;;;15.40;99.90;;;;;;5051123;28;20147;-56
2022/07/19 03:44:45;;;;;;;21.60;9.57;;;15.40;99.90;;;;;;5050982;28;20036;-56
2022/07/19 03:47:11;;;;;;;23.70;11.45;;;15.50;99.90;;;;;;5051008;28;20037;-55
2022/07/19 03:49:37;;;;;;;25.80;12.88;;;15.40;99.90;;;;;;5051045;28;20021;-56
2022/07/19 03:52:03;;;;;;;24.58;12.77;;;15.40;99.90;;;;;;5033253;28;20036;-58
2022/07/19 03:54:29;;;;;;;19.73;11.65;;;15.40;99.90;;;;;;5050941;28;20379;-56
2022/07/19 03:56:55;;;;;;;23.20;12.63;;;15.50;99.90;;;;;;5050942;28;20480;-56
2022/07/19 03:59:22;;;;;;;25.50;11.85;;;15.50;99.90;;;;;;5050888;28;20021;-56
2022/07/19 04:01:48;;;;;;;;;;;15.40;99.90;;;;;;5051183;28;20025;-56
2022/07/19 04:04:14;;;;;;;20.98;12.50;;;15.40;99.90;;;;;;5050817;28;19912;-56
2022/07/19 04:06:39;;;;;;;20.80;12.18;;;15.40;99.90;;;;;;5050862;28;20017;-57
2022/07/19 04:09:05;;;;;;;25.92;12.23;;;15.40;99.90;;;;;;5050848;28;20537;-58
2022/07/19 04:11:31;;;;;;;24.98;11.55;;;15.40;99.90;;;;;;5050594;28;20025;-55
2022/07/19 04:13:57;;;;;;;25.05;13.02;;;15.40;99.90;;;;;;5050390;28;20049;-55
2022/07/19 04:16:22;;;;;;;22.88;12.85;;;15.40;99.90;;;;;;5050058;28;20029;-56
2022/07/19 04:18:48;;;;;;;23.63;13.70;;;15.50;99.90;;;;;;5050234;28;20056;-55
2022/07/19 04:21:13;;;;;;;23.50;11.55;;;15.50;99.90;;;;;;5050610;28;20017;-56
2022/07/19 04:23:39;;;;;;;29.17;13.70;;;15.50;99.90;;;;;;5050743;28;20032;-58
2022/07/19 04:26:05;;;;;;;24.88;12.93;;;15.60;99.90;;;;;;5050634;28;20449;-56
2022/07/19 04:28:30;;;;;;;29.48;12.88;;;15.70;99.90;;;;;;5050562;28;20116;-56
2022/07/19 04:30:56;;;;;;;22.73;11.85;;;15.70;99.90;;;;;;5050430;28;20025;-56
2022/07/19 04:33:22;;;;;;;23.95;12.38;;;15.80;99.90;;;;;;5050323;28;20491;-55
2022/07/19 04:35:48;;;;;;;22.98;11.52;;;15.80;99.90;;;;;;5050580;28;20025;-56
2022/07/19 04:38:13;;;;;;;18.95;10.88;;;15.90;99.90;;;;;;5050441;28;20032;-55
2022/07/19 04:40:40;;;;;;;21.15;9.20;;;15.90;99.90;;;;;;5050359;28;20110;-56
2022/07/19 04:43:06;;;;;;;28.08;10.52;;;16.00;99.90;;;;;;5050319;28;20443;-56
2022/07/19 04:45:32;;;;;;;18.35;9.68;;;16.00;99.90;;;;;;5050634;28;20021;-56
2022/07/19 04:47:58;;;;;;;18.65;10.48;;;16.20;99.90;;;;;;5050412;28;20025;-56
2022/07/19 04:50:24;;;;;;;18.60;9.40;;;16.20;99.90;;;;;;5050228;28;20024;-56
2022/07/19 04:52:49;;;;;;;23.02;11.05;;;16.20;99.90;;;;;;5050350;28;20033;-56
2022/07/19 04:55:15;;;;;;;16.05;9.32;;;16.20;99.90;;;;;;5050273;28;20040;-56
2022/07/19 04:57:41;;;;;;;18.00;8.77;;;16.30;99.90;;;;;;5050143;28;20044;-56
2022/07/19 05:00:09;;;;;;;18.38;9.10;;;16.30;99.90;;;;;;5032563;28;20031;-56
2022/07/19 05:02:36;;;;;;;17.17;9.10;;;16.40;99.90;;;;;;5050199;28;20024;-56
2022/07/19 05:05:02;;;;;;;15.70;9.20;;;16.30;99.90;;;;;;5050224;28;20017;-56
2022/07/19 05:07:28;;;;;;;19.90;9.27;;;16.40;99.90;;;;;;5050227;28;20036;-56
2022/07/19 05:09:54;;;;;;;17.73;8.40;;;16.40;99.90;;;;;;5050110;28;20021;-56
2022/07/19 05:12:19;;;;;;;16.00;8.40;;;16.50;99.90;;;;;;5050070;28;20033;-56
2022/07/19 05:14:45;;;;;;;16.98;7.75;;;16.60;99.90;;;;;;5049903;28;20053;-56
2022/07/19 05:17:11;;;;;;;17.40;7.70;;;16.60;99.90;;;;;;5048510;28;20127;-56
2022/07/19 05:19:37;;;;;;;20.67;7.85;;;16.80;99.90;;;;;;5050060;28;20460;-56
2022/07/19 05:22:03;;;;;;;19.58;10.27;;;16.90;99.90;;;;;;5049894;28;20032;-56
2022/07/19 05:24:29;;;;;;;30.17;11.65;;;17.00;99.90;;;;;;5050035;28;20067;-55
2022/07/19 05:26:54;;;;;;;21.75;8.55;;;17.10;99.90;;;;;;5049896;28;20040;-56
2022/07/19 05:29:20;;;;;;;22.20;8.60;;;17.30;99.90;;;;;;5052691;28;20021;-55
2022/07/19 05:31:46;;;;;;;22.63;8.93;;;17.30;99.90;;;;;;5053661;28;20029;-56
2022/07/19 05:34:12;;;;;;;24.00;9.50;;;17.50;99.90;;;;;;5053605;28;20021;-55
2022/07/19 05:36:41;;;;;;;26.63;11.98;;;17.60;99.90;;;;;;5053553;28;20045;-55
2022/07/19 05:39:06;;;;;;;29.98;12.00;;;17.80;99.90;;;;;;5053512;28;20052;-55
2022/07/19 05:41:32;;;;;;;33.85;12.32;;;17.90;99.90;;;;;;5053390;28;20061;-55
2022/07/19 05:43:58;;;;;;;36.20;13.70;;;18.00;99.90;;;;;;5053343;28;20087;-55
2022/07/19 05:46:24;;;;;;;30.30;12.18;;;18.10;99.90;;;;;;5053392;28;20028;-54
2022/07/19 05:48:50;;;;;;;26.02;10.75;;;18.20;99.90;;;;;;5053224;28;20060;-55
2022/07/19 05:51:15;;;;;;;25.83;10.27;;;18.30;99.90;;;;;;5053354;28;20029;-56
2022/07/19 05:53:42;;;;;;;28.27;11.30;;;18.40;99.90;;;;;;5053207;28;20035;-57
2022/07/19 05:56:08;;;;;;;23.17;9.10;;;18.50;99.90;;;;;;5035124;28;20052;-55
2022/07/19 05:58:34;;;;;;;29.13;10.83;;;18.50;99.90;;;;;;5053210;28;20322;-56
2022/07/19 06:01:18;;;;;;;26.58;9.77;;;18.70;99.90;;;;;;5053167;28;20068;-55
2022/07/19 06:03:47;;;;;;;23.10;8.25;;;18.70;99.90;;;;;;5053193;28;20218;-56
2022/07/19 06:06:13;;;;;;;23.20;7.72;;;18.90;99.90;;;;;;5052984;28;20492;-56
2022/07/19 06:08:39;;;;;;;21.77;7.47;;;19.10;99.90;;;;;;5052915;28;20033;-56
2022/07/19 06:11:05;;;;;;;24.05;7.75;;;19.10;99.90;;;;;;5053111;28;20086;-55
2022/07/19 06:13:31;;;;;;;20.23;7.05;;;19.30;99.90;;;;;;5052716;28;20021;-56
2022/07/19 06:15:57;;;;;;;24.90;12.23;;;19.40;99.90;;;;;;5052795;28;20035;-56
2022/07/19 06:18:22;;;;;;;19.95;6.28;;;19.50;99.90;;;;;;5052654;28;20025;-56
2022/07/19 06:20:48;;;;;;;18.65;6.40;;;19.60;99.90;;;;;;5052674;28;20021;-56
2022/07/19 06:23:14;;;;;;;25.13;6.35;;;19.70;99.90;;;;;;5052585;28;20112;-56
2022/07/19 06:25:40;;;;;;;23.70;6.47;;;19.80;99.90;;;;;;5052963;28;20028;-56
2022/07/19 06:28:05;;;;;;;21.40;6.22;;;20.00;99.90;;;;;;5052666;28;20056;-56
2022/07/19 06:30:31;;;;;;;16.05;5.75;;;19.90;99.90;;;;;;5034782;28;20036;-56
2022/07/19 06:32:57;;;;;;;22.20;7.57;;;20.00;99.90;;;;;;5052376;28;20056;-56
2022/07/19 06:35:23;;;;;;;33.15;7.95;;;20.10;99.90;;;;;;5052541;28;20048;-56
2022/07/19 06:37:48;;;;;;;36.28;8.57;;;20.20;99.90;;;;;;5052275;28;20044;-56
2022/07/19 06:40:14;;;;;;;30.60;6.03;;;20.40;99.90;;;;;;5050075;28;20487;-56
2022/07/19 06:42:40;;;;;;;19.65;4.70;;;20.60;99.90;;;;;;5052300;28;20033;-55
2022/07/19 06:45:06;;;;;;;25.73;5.18;;;20.80;99.90;;;;;;5052181;28;20028;-56
2022/07/19 06:47:34;;;;;;;15.27;3.75;;;21.10;99.90;;;;;;5052284;28;20033;-55
2022/07/19 06:50:00;;;;;;;11.10;4.25;;;21.10;99.90;;;;;;5052028;28;20028;-56
2022/07/19 06:52:26;;;;;;;17.17;4.25;;;21.20;99.90;;;;;;5052035;28;20021;-56
2022/07/19 06:54:52;;;;;;;12.18;3.72;;;21.40;98.70;;;;;;5051951;28;20102;-56
2022/07/19 06:57:18;;;;;;;12.88;3.45;;;21.50;96.80;;;;;;5051970;28;20073;-56
2022/07/19 06:59:43;;;;;;;11.38;3.85;;;21.60;98.80;;;;;;5051801;28;20048;-56
2022/07/19 07:02:09;;;;;;;9.55;3.55;;;21.70;96.40;;;;;;5051928;28;20035;-56
2022/07/19 07:04:35;;;;;;;12.10;3.70;;;21.70;95.80;;;;;;5052245;28;20460;-56
2022/07/19 07:07:01;;;;;;;10.85;3.17;;;21.90;96.00;;;;;;5051708;28;20075;-56
2022/07/19 07:09:26;;;;;;;14.07;3.95;;;22.10;94.60;;;;;;5051756;28;20106;-56
2022/07/19 07:11:52;;;;;;;11.68;3.95;;;22.00;94.70;;;;;;5051535;28;20029;-56
2022/07/19 07:14:18;;;;;;;10.80;3.90;;;22.00;95.10;;;;;;5051372;28;20044;-55
2022/07/19 07:16:43;;;;;;;10.90;4.30;;;22.10;93.60;;;;;;5051518;28;20045;-56
2022/07/19 07:19:09;;;;;;;9.18;3.88;;;22.20;94.30;;;;;;5051497;28;20033;-56
2022/07/19 07:21:35;;;;;;;14.00;3.97;;;22.30;95.20;;;;;;5051434;28;20075;-56
2022/07/19 07:24:05;;;;;;;13.82;4.22;;;22.60;94.60;;;;;;5051340;28;20079;-56
2022/07/19 07:26:31;;;;;;;10.18;4.25;;;22.70;94.10;;;;;;5051391;28;20029;-56
2022/07/19 07:28:58;;;;;;;10.45;3.78;;;22.70;92.50;;;;;;5051253;28;20036;-56
2022/07/19 07:31:23;;;;;;;8.13;3.47;;;22.70;93.30;;;;;;5051333;28;20087;-56
2022/07/19 07:33:50;;;;;;;11.32;3.75;;;22.70;93.20;;;;;;5050983;28;20033;-55
2022/07/19 07:36:16;;;;;;;12.65;3.45;;;22.70;93.90;;;;;;5051117;28;20064;-55
2022/07/19 07:38:42;;;;;;;10.82;5.05;;;22.90;93.30;;;;;;5051162;28;20033;-55
2022/07/19 07:41:08;;;;;;;13.07;4.05;;;23.00;94.00;;;;;;5051053;28;20032;-56
2022/07/19 07:43:33;;;;;;;9.85;3.97;;;23.10;92.70;;;;;;5050995;28;20810;-55
2022/07/19 07:45:59;;;;;;;15.88;5.50;;;23.10;92.40;;;;;;5050970;28;20029;-55
2022/07/19 07:48:25;;;;;;;11.88;4.43;;;23.10;93.20;;;;;;5050927;28;20511;-55
2022/07/19 07:50:50;;;;;;;9.95;3.30;;;23.30;93.30;;;;;;5050840;28;20082;-56
2022/07/19 07:53:16;;;;;;;9.73;3.78;;;23.40;91.20;;;;;;5051053;28;20154;-55
2022/07/19 07:55:42;;;;;;;13.90;5.07;;;23.40;90.80;;;;;;5051039;28;20025;-56
2022/07/19 07:58:09;;;;;;;13.43;4.45;;;23.50;92.00;;;;;;5050718;28;20036;-56
2022/07/19 08:00:36;;;;;;;12.73;3.58;;;23.70;86.90;;;;;;5050833;28;20021;-56
2022/07/19 08:03:02;;;;;;;;;;;23.70;89.50;;;;;;5051195;28;20060;-56
2022/07/19 08:05:28;;;;;;;11.55;3.28;;;23.70;84.70;;;;;;5050809;28;20473;-56
2022/07/19 08:07:54;;;;;;;8.32;2.83;;;24.00;87.90;;;;;;5050871;28;20495;-56
2022/07/19 08:10:22;;;;;;;7.22;2.85;;;24.00;85.80;;;;;;5050582;28;20393;-56
2022/07/19 08:12:47;;;;;;;11.57;3.20;;;24.20;83.60;;;;;;5050628;28;20461;-56
2022/07/19 08:15:13;;;;;;;5.70;2.45;;;24.10;80.80;;;;;;5050477;28;20182;-56
2022/07/19 08:17:39;;;;;;;6.38;2.63;;;24.10;85.70;;;;;;5050424;28;20503;-56
2022/07/19 08:20:05;;;;;;;8.65;2.95;;;24.10;83.60;;;;;;5050459;28;20029;-55
2022/07/19 08:22:31;;;;;;;10.67;2.87;;;24.30;81.30;;;;;;5050485;28;20025;-56
2022/07/19 08:24:57;;;;;;;9.18;2.50;;;24.60;85.10;;;;;;5050447;28;20032;-56
2022/07/19 08:27:22;;;;;;;10.90;2.65;;;24.60;79.50;;;;;;5050550;28;20104;-56
2022/07/19 08:29:48;;;;;;;6.28;2.75;;;24.80;79.20;;;;;;5050272;28;20115;-57
2022/07/19 08:32:14;;;;;;;6.20;1.65;;;24.70;77.80;;;;;;5050353;28;20037;-55
2022/07/19 08:34:40;;;;;;;18.00;2.72;;;24.70;74.60;;;;;;5050336;28;20079;-55
2022/07/19 08:37:06;;;;;;;12.98;2.00;;;24.80;71.00;;;;;;5050420;28;20452;-56
2022/07/19 08:39:31;;;;;;;11.55;3.47;;;25.00;68.30;;;;;;5050247;28;20492;-55
2022/07/19 08:41:57;;;;;;;12.98;3.03;;;25.00;74.70;;;;;;5050323;28;20117;-56
2022/07/19 08:44:23;;;;;;;40.70;5.70;;;25.10;72.30;;;;;;5050288;28;20051;-55
2022/07/19 08:46:49;;;;;;;10.23;2.72;;;25.30;73.50;;;;;;5050239;28;20021;-55
2022/07/19 08:49:15;;;;;;;7.50;2.38;;;25.30;77.50;;;;;;5050139;28;20071;-55
2022/07/19 08:51:42;;;;;;;6.40;1.93;;;25.40;70.00;;;;;;5050227;28;20380;-55
2022/07/19 08:54:08;;;;;;;9.25;2.05;;;25.20;66.60;;;;;;5050129;28;20264;-57
2022/07/19 08:59:18;;;;;;;10.68;2.28;;;25.60;71.30;;;;;;5050065;28;20460;-55
2022/07/19 09:01:44;;;;;;;3.65;1.67;;;25.50;66.60;;;;;;5050265;28;20053;-55
2022/07/19 09:04:10;;;;;;;8.88;1.77;;;25.50;64.30;;;;;;5052611;28;20052;-55
2022/07/19 09:06:56;;;;;;;55.95;6.22;;;25.50;61.90;;;;;;5054110;28;20116;-55
2022/07/19 09:09:32;;;;;;;8.05;2.15;;;25.60;67.90;;;;;;5054006;28;20053;-55
2022/07/19 09:11:59;;;;;;;8.73;2.15;;;25.70;63.80;;;;;;5053896;28;20028;-55
2022/07/19 09:14:34;;;;;;;5.43;2.25;;;25.90;68.30;;;;;;5053866;28;20132;-55
2022/07/19 09:17:16;;;;;;;8.95;2.17;;;25.90;63.80;;;;;;5052474;28;20033;-55
2022/07/19 09:19:44;;;;;;;6.28;2.10;;;25.90;66.10;;;;;;5052326;28;20032;-55
2022/07/19 09:22:12;;;;;;;8.15;2.53;;;25.90;63.60;;;;;;5053716;28;20032;-55
2022/07/19 09:24:49;;;;;;;9.05;2.20;;;25.90;66.40;;;;;;5053650;28;20083;-55
2022/07/19 09:27:22;;;;;;;5.15;2.17;;;26.20;67.00;;;;;;5052368;28;20115;-55
2022/07/19 09:29:53;;;;;;;12.13;2.20;;;26.20;61.80;;;;;;5053641;28;20585;-55
2022/07/19 09:32:20;;;;;;;6.43;1.85;;;26.20;63.90;;;;;;5053714;28;20037;-55
2022/07/19 09:34:57;;;;;;;8.88;2.75;;;26.40;59.70;;;;;;5053644;28;20037;-55
2022/07/19 09:37:28;;;;;;;7.47;2.50;;;26.40;58.90;;;;;;5053620;28;20033;-55
2022/07/19 09:39:59;;;;;;;7.80;1.90;;;26.40;58.70;;;;;;5053518;28;20033;-55
2022/07/19 09:42:35;;;;;;;5.28;2.22;;;26.40;58.60;;;;;;5035801;28;20151;-55
2022/07/19 09:45:04;;;;;;;5.28;1.90;;;26.70;60.50;;;;;;5053432;28;20033;-55
2022/07/19 09:47:34;;;;;;;7.38;2.47;;;26.90;60.00;;;;;;5053206;28;20028;-56
2022/07/19 09:50:01;;;;;;;5.20;1.98;;;26.90;59.90;;;;;;5053162;28;20116;-56
2022/07/19 09:52:27;;;;;;;7.32;2.08;;;26.90;59.60;;;;;;5053337;28;20128;-56
2022/07/19 09:54:55;;;;;;;6.07;1.98;;;27.00;62.20;;;;;;5053353;28;20539;-55
2022/07/19 09:57:24;;;;;;;4.82;2.28;;;27.10;58.90;;;;;;5053091;28;20041;-56
2022/07/19 09:59:54;;;;;;;4.90;1.67;;;27.30;58.90;;;;;;5052981;28;20063;-56
2022/07/19 10:02:22;;;;;;;8.43;2.42;;;27.50;61.10;;;;;;5053148;28;20082;-56
2022/07/19 10:04:48;;;;;;;15.68;3.53;;;27.60;60.50;;;;;;5052941;28;20108;-56
2022/07/19 10:07:16;;;;;;;4.97;1.90;;;27.70;59.40;;;;;;5052946;28;20029;-56
2022/07/19 10:09:44;;;;;;;5.65;2.22;;;27.40;58.60;;;;;;5052861;28;20021;-55
2022/07/19 10:12:11;;;;;;;41.13;4.88;;;27.40;60.30;;;;;;5052819;28;20029;-56
2022/07/19 10:14:38;;;;;;;6.72;2.75;;;27.70;59.20;;;;;;5051537;28;20052;-56
2022/07/19 10:17:18;;;;;;;4.07;1.67;;;27.70;58.20;;;;;;5052629;28;20049;-56
2022/07/19 10:19:47;;;;;;;5.05;2.28;;;28.00;63.20;;;;;;5052724;28;20026;-55
2022/07/19 10:22:19;;;;;;;7.75;2.05;;;28.20;57.30;;;;;;5052711;28;20025;-55
2022/07/19 10:25:04;;;;;;;8.57;2.53;;;27.90;55.80;;;;;;5052608;28;20051;-56
2022/07/19 10:27:29;;;;;;;10.18;2.60;;;28.00;56.50;;;;;;5052771;28;20028;-56
2022/07/19 10:29:58;;;;;;;6.00;3.10;;;27.80;57.80;;;;;;5051209;28;20488;-56
2022/07/19 10:32:31;;;;;;;5.18;1.92;;;28.10;57.70;;;;;;5052484;28;20040;-56
2022/07/19 10:35:16;;;;;;;8.48;2.10;;;28.50;60.40;;;;;;5052517;28;20021;-56
2022/07/19 10:37:44;;;;;;;7.47;2.20;;;28.80;57.20;;;;;;5052290;28;20033;-56
2022/07/19 10:40:09;;;;;;;6.53;2.60;;;28.70;55.30;;;;;;5052423;28;20021;-56
2022/07/19 10:42:35;;;;;;;9.20;1.90;;;28.20;55.90;;;;;;5052363;28;20052;-56
2022/07/19 10:45:04;;;;;;;9.95;2.08;;;28.20;56.00;;;;;;5052329;28;20107;-56
2022/07/19 10:47:36;;;;;;;6.90;2.15;;;28.60;57.60;;;;;;5052122;28;20078;-56
2022/07/19 10:50:14;;;;;;;6.43;2.25;;;29.00;59.00;;;;;;5052443;28;20108;-56
2022/07/19 10:52:42;;;;;;;4.20;2.10;;;29.00;54.80;;;;;;5052045;28;20049;-56
2022/07/19 10:55:17;;;;;;;6.68;2.10;;;29.20;54.50;;;;;;5052047;28;20022;-56
2022/07/19 10:57:43;;;;;;;16.77;2.47;;;29.80;57.50;;;;;;5051970;28;20037;-56
2022/07/19 11:00:24;;;;;;;8.13;2.20;;;29.70;56.00;;;;;;5051802;28;20099;-56
2022/07/19 11:02:51;;;;;;;3.20;1.65;;;29.50;53.80;;;;;;5051937;28;20025;-56
2022/07/19 11:05:29;;;;;;;5.80;1.88;;;29.30;53.80;;;;;;5051727;28;20668;-56
2022/07/19 11:07:57;;;;;;;6.65;2.22;;;29.20;54.10;;;;;;5051800;28;20079;-56
2022/07/19 11:10:30;;;;;;;6.40;1.80;;;29.10;55.00;;;;;;5051731;28;20071;-56
2022/07/19 11:12:58;;;;;;;7.47;2.15;;;29.30;53.70;;;;;;5051640;28;20025;-56
2022/07/19 11:15:27;;;;;;;5.15;2.00;;;29.50;56.70;;;;;;5051548;28;20094;-56
2022/07/19 11:18:19;;;;;;;3.95;1.95;;;29.80;52.10;;;;;;5051317;28;20048;-56
2022/07/19 11:20:45;;;;;;;7.85;2.25;;;29.90;54.50;;;;;;5047551;28;20048;-56
2022/07/19 11:23:18;;;;;;;5.70;2.55;;;30.10;60.50;;;;;;5051367;28;20021;-56
2022/07/19 11:25:44;;;;;;;7.13;2.22;;;30.40;57.20;;;;;;5051080;28;20573;-55
2022/07/19 11:28:21;;;;;;;6.87;2.17;;;30.80;59.60;;;;;;5051443;28;20033;-56
2022/07/19 11:30:46;;;;;;;3.33;1.87;;;31.10;62.00;;;;;;5051397;28;20357;-56
2022/07/19 11:33:16;;;;;;;6.15;2.47;;;31.50;55.80;;;;;;5051262;28;20503;-56
2022/07/19 11:36:00;;;;;;;6.38;2.28;;;31.20;53.50;;;;;;5051250;28;20126;-56
2022/07/19 11:38:38;;;;;;;5.63;1.95;;;30.60;50.20;;;;;;5050978;28;20028;-56
2022/07/19 11:41:08;;;;;;;7.43;2.03;;;29.90;51.00;;;;;;5051041;28;20033;-56
2022/07/19 11:43:35;;;;;;;10.80;2.15;;;30.10;52.20;;;;;;5050949;28;20059;-56
2022/07/19 11:46:01;;;;;;;4.72;2.40;;;30.10;51.20;;;;;;5050974;28;20104;-56
2022/07/19 11:48:30;;;;;;;4.13;2.05;;;30.10;53.70;;;;;;5051184;28;20132;-56
2022/07/19 11:51:09;;;;;;;8.18;1.88;;;30.60;51.70;;;;;;5050805;28;20384;-56
2022/07/19 11:53:38;;;;;;;6.10;2.22;;;30.90;55.00;;;;;;5049597;28;20112;-56
2022/07/19 11:56:06;;;;;;;3.78;1.75;;;31.00;52.30;;;;;;5050886;28;20051;-56
2022/07/19 11:58:32;;;;;;;4.95;1.90;;;31.30;55.00;;;;;;5050816;28;20033;-57
2022/07/19 12:01:05;;;;;;;7.38;2.42;;;31.60;57.60;;;;;;5050753;28;20029;-57
2022/07/19 12:03:31;;;;;;;10.13;2.15;;;31.60;55.00;;;;;;5050838;28;20380;-56
2022/07/19 12:06:06;;;;;;;8.50;1.60;;;31.50;53.70;;;;;;5050869;28;20032;-56
2022/07/19 12:08:43;;;;;;;10.57;3.05;;;31.50;52.50;;;;;;5050769;28;20024;-55
2022/07/19 12:11:42;;;;;;;5.38;1.80;;;31.50;50.70;;;;;;5050408;28;20017;-56
2022/07/19 12:14:25;;;;;;;7.95;1.80;;;31.20;50.20;;;;;;5050345;28;20045;-56
2022/07/19 12:17:12;;;;;;;7.22;2.25;;;30.90;52.10;;;;;;5050667;28;20029;-56
2022/07/19 12:19:39;;;;;;;3.78;1.88;;;31.30;52.10;;;;;;5050640;28;20021;-56
2022/07/19 12:22:04;;;;;;;4.65;1.92;;;31.40;52.80;;;;;;5050616;28;20144;-56
2022/07/19 12:24:31;;;;;;;13.93;2.63;;;31.80;52.60;;;;;;5050546;28;20112;-56
2022/07/19 12:27:04;;;;;;;4.37;2.17;;;31.70;53.10;;;;;;5050616;28;20144;-55
2022/07/19 12:29:45;;;;;;;3.03;1.55;;;32.00;50.50;;;;;;5050516;28;20450;-56
2022/07/19 12:32:13;;;;;;;4.53;1.85;;;32.10;50.70;;;;;;5050711;28;20025;-56
2022/07/19 12:34:43;;;;;;;5.88;2.15;;;32.20;52.30;;;;;;5050345;28;20112;-56
2022/07/19 12:37:19;;;;;;;3.92;1.60;;;32.30;48.30;;;;;;5050354;28;20032;-56
2022/07/19 12:40:08;;;;;;;10.60;2.00;;;31.60;47.80;;;;;;5053965;28;20052;-56
2022/07/19 12:42:44;;;;;;;7.30;1.95;;;31.60;48.00;;;;;;5053157;28;20170;-57
2022/07/19 12:45:21;;;;;;;3.70;1.67;;;31.50;49.70;;;;;;5054599;28;20020;-56
2022/07/19 12:47:48;;;;;;;5.63;2.03;;;30.90;49.30;;;;;;5054369;28;20564;-56